Time;durP1;ratioP1;P1;durP2;ratioP2;P2;SDS_P1;SDS_P2;PMS_P1;PMS_P2;Temp;Humidity;BMP_temperature;BMP_pressure;BME280_temperature;BME280_humidity;BME280_pressure;Samples;Min_cycle;Max_cycle;Signal;HPM_P1;HPM_P2
2023/01/31 00:23:49;;;;;;;15.60;4.55;;;6.70;68.70;;;;;;5032365;28;20036;-45
2023/01/31 00:26:24;;;;;;;18.92;4.78;;;6.60;68.30;;;;;;5027456;28;20041;-44
2023/01/31 00:28:53;;;;;;;16.05;5.40;;;6.60;68.70;;;;;;5032634;28;20049;-43
2023/01/31 00:31:28;;;;;;;17.65;5.38;;;6.60;68.80;;;;;;5031384;28;20033;-43
2023/01/31 00:33:56;;;;;;;13.65;5.00;;;6.50;69.00;;;;;;5025966;28;20053;-47
2023/01/31 00:36:32;;;;;;;11.07;5.03;;;6.50;69.00;;;;;;5032347;28;20125;-43
2023/01/31 00:39:00;;;;;;;15.43;5.18;;;6.50;69.10;;;;;;5032107;28;20049;-44
2023/01/31 00:41:39;;;;;;;16.25;5.63;;;6.50;69.20;;;;;;5029397;28;20053;-44
2023/01/31 00:44:06;;;;;;;15.15;5.15;;;6.50;69.20;;;;;;5031296;28;20048;-43
2023/01/31 00:46:37;;;;;;;12.40;4.95;;;6.50;69.20;;;;;;5030173;28;20506;-44
2023/01/31 00:49:07;;;;;;;15.00;5.18;;;6.50;69.20;;;;;;5032796;28;20033;-44
2023/01/31 00:51:36;;;;;;;12.82;4.65;;;6.50;69.20;;;;;;5033428;28;20121;-46
2023/01/31 00:54:04;;;;;;;15.27;4.90;;;6.50;69.30;;;;;;5030305;28;20067;-43
2023/01/31 00:56:32;;;;;;;21.27;5.80;;;6.50;69.30;;;;;;5029442;28;20390;-43
2023/01/31 00:58:59;;;;;;;15.63;4.82;;;6.50;69.30;;;;;;5027353;28;20048;-47
2023/01/31 01:01:30;;;;;;;15.27;6.30;;;6.40;69.20;;;;;;5031859;28;20044;-47
2023/01/31 01:04:06;;;;;;;13.10;4.55;;;6.40;69.30;;;;;;5031307;28;20069;-43
2023/01/31 01:06:33;;;;;;;14.85;4.55;;;6.50;69.50;;;;;;5029393;28;20119;-44
2023/01/31 01:09:04;;;;;;;20.55;5.25;;;6.50;69.60;;;;;;5031407;28;20224;-43
2023/01/31 01:11:35;;;;;;;12.85;4.20;;;6.50;69.70;;;;;;5027985;28;20404;-44
2023/01/31 01:14:04;;;;;;;12.15;4.78;;;6.50;69.80;;;;;;5046449;28;20049;-43
2023/01/31 01:16:38;;;;;;;16.33;4.40;;;6.50;69.80;;;;;;5031517;28;20044;-43
2023/01/31 01:19:15;;;;;;;14.93;5.07;;;6.60;69.80;;;;;;5029901;28;20044;-46
2023/01/31 01:21:43;;;;;;;14.70;3.75;;;6.60;69.70;;;;;;5027687;28;20045;-45
2023/01/31 01:24:18;;;;;;;9.95;3.83;;;6.60;69.60;;;;;;5023421;28;20042;-45
2023/01/31 01:26:53;;;;;;;11.10;4.55;;;6.60;69.60;;;;;;5031725;28;20124;-44
2023/01/31 01:29:19;;;;;;;;;;;6.60;69.30;;;;;;5026671;28;20037;-44
2023/01/31 01:31:48;;;;;;;16.50;4.80;;;6.60;69.60;;;;;;5029304;28;19921;-44
2023/01/31 01:34:25;;;;;;;15.05;4.60;;;6.60;69.00;;;;;;5024155;28;20053;-44
2023/01/31 01:36:54;;;;;;;12.85;4.30;;;6.60;69.10;;;;;;5028914;28;20037;-44
2023/01/31 01:39:24;;;;;;;11.77;4.55;;;6.60;69.20;;;;;;5031234;28;20048;-44
2023/01/31 01:41:51;;;;;;;11.60;3.92;;;6.60;69.30;;;;;;5030559;28;20103;-45
2023/01/31 01:44:48;;;;;;;18.42;4.78;;;6.60;69.30;;;;;;5023641;28;20045;-44
2023/01/31 01:47:30;;;;;;;10.82;4.07;;;6.60;69.60;;;;;;5023446;28;20056;-47
2023/01/31 01:50:06;;;;;;;10.65;3.67;;;6.60;69.40;;;;;;5024338;28;20680;-43
2023/01/31 01:52:38;;;;;;;18.23;4.68;;;6.50;69.40;;;;;;5024884;28;20048;-45
2023/01/31 01:55:20;;;;;;;13.20;4.65;;;6.50;69.40;;;;;;5030364;28;20025;-48
2023/01/31 01:57:51;;;;;;;11.95;4.03;;;6.50;69.50;;;;;;5028725;28;20117;-44
2023/01/31 02:00:24;;;;;;;12.10;4.53;;;6.50;69.50;;;;;;5024398;28;20041;-45
2023/01/31 02:02:54;;;;;;;10.88;4.15;;;6.50;69.50;;;;;;5031190;28;20041;-44
2023/01/31 02:05:28;;;;;;;12.38;4.72;;;6.50;69.50;;;;;;5046412;28;20073;-44
2023/01/31 02:07:58;;;;;;;7.88;4.22;;;6.50;69.60;;;;;;5023859;28;20045;-43
2023/01/31 02:10:33;;;;;;;15.57;4.57;;;6.50;69.70;;;;;;5029560;28;20057;-43
2023/01/31 02:13:07;;;;;;;17.40;5.07;;;6.50;69.90;;;;;;5028934;28;20037;-44
2023/01/31 02:15:35;;;;;;;13.18;5.05;;;6.50;69.90;;;;;;5025004;28;20037;-44
2023/01/31 02:18:02;;;;;;;10.00;4.32;;;6.50;70.00;;;;;;5030478;28;20052;-44
2023/01/31 02:21:17;;;;;;;13.35;4.97;;;6.50;70.10;;;;;;5029664;28;20053;-48
2023/01/31 02:24:31;;;;;;;10.73;4.25;;;6.50;70.50;;;;;;5026617;28;20111;-44
2023/01/31 02:27:17;;;;;;;12.77;4.95;;;6.50;70.30;;;;;;5045581;28;20045;-43
2023/01/31 02:30:15;;;;;;;19.88;5.68;;;6.60;70.00;;;;;;5034329;28;20536;-45
2023/01/31 02:33:07;;;;;;;15.30;5.43;;;6.60;70.40;;;;;;5039344;28;20049;-45
2023/01/31 02:35:50;;;;;;;13.97;4.47;;;6.50;70.30;;;;;;5027622;28;20073;-44
2023/01/31 02:38:33;;;;;;;17.58;6.07;;;6.60;70.30;;;;;;5023603;28;20502;-48
2023/01/31 02:41:38;;;;;;;12.40;5.53;;;6.50;70.00;;;;;;5046412;28;20521;-44
2023/01/31 02:44:58;;;;;;;15.52;4.90;;;6.50;70.10;;;;;;5025730;28;20195;-44
2023/01/31 02:47:46;;;;;;;16.25;5.60;;;6.50;70.10;;;;;;5014483;28;20076;-47
2023/01/31 02:50:19;;;;;;;17.13;5.47;;;6.50;70.30;;;;;;5038298;28;20528;-43
2023/01/31 02:52:53;;;;;;;18.13;5.97;;;6.50;70.20;;;;;;5040571;28;20144;-44
2023/01/31 02:58:21;;;;;;;13.70;5.30;;;6.40;70.30;;;;;;5034994;28;20034;-48
2023/01/31 03:00:49;;;;;;;15.10;6.32;;;6.40;70.30;;;;;;5026984;28;20046;-44
2023/01/31 03:03:27;;;;;;;13.93;5.90;;;6.40;70.40;;;;;;5027611;28;20097;-46
2023/01/31 03:06:22;;;;;;;11.90;5.47;;;6.40;70.70;;;;;;5045224;28;20045;-45
2023/01/31 03:09:03;;;;;;;11.40;5.57;;;6.40;71.10;;;;;;5026816;28;20144;-48
2023/01/31 03:11:57;;;;;;;13.90;5.50;;;6.40;71.00;;;;;;5028618;28;20068;-48
2023/01/31 03:14:32;;;;;;;15.65;6.15;;;6.40;71.10;;;;;;5022762;28;20046;-48
2023/01/31 03:17:31;;;;;;;12.73;5.53;;;6.40;70.90;;;;;;5044924;28;20147;-48
2023/01/31 03:20:14;;;;;;;12.70;5.32;;;6.40;71.50;;;;;;5021535;28;20088;-44
2023/01/31 03:22:44;;;;;;;14.60;5.80;;;6.40;71.10;;;;;;5024820;28;20053;-44
2023/01/31 03:25:13;;;;;;;13.98;5.70;;;6.30;71.20;;;;;;5038535;28;20037;-44
2023/01/31 03:27:47;;;;;;;14.00;5.22;;;6.40;71.30;;;;;;5028862;28;20410;-45
2023/01/31 03:30:21;;;;;;;17.27;6.45;;;6.40;71.40;;;;;;5022742;28;20033;-43
2023/01/31 03:32:54;;;;;;;19.70;6.65;;;6.30;71.40;;;;;;5044711;28;20573;-44
2023/01/31 03:35:24;;;;;;;16.42;6.43;;;6.30;71.40;;;;;;5029192;28;20038;-45
2023/01/31 03:38:16;;;;;;;13.05;5.75;;;6.30;71.60;;;;;;5027554;28;20100;-45
2023/01/31 03:40:52;;;;;;;17.48;5.95;;;6.30;71.90;;;;;;5043420;28;20061;-44
2023/01/31 03:43:41;;;;;;;14.38;6.25;;;6.30;71.80;;;;;;5039448;28;20045;-47
2023/01/31 03:46:19;;;;;;;16.42;7.03;;;6.40;72.20;;;;;;5044875;28;20509;-45
2023/01/31 03:48:51;;;;;;;12.88;5.82;;;6.40;72.20;;;;;;5026946;28;20060;-47
2023/01/31 03:51:26;;;;;;;14.68;5.68;;;6.40;72.10;;;;;;5026273;28;20065;-47
2023/01/31 03:54:03;;;;;;;15.73;7.30;;;6.40;72.20;;;;;;5025338;28;20051;-48
2023/01/31 03:56:39;;;;;;;18.65;6.82;;;6.50;72.40;;;;;;5029604;28;20124;-46
2023/01/31 03:59:12;;;;;;;14.15;6.68;;;6.50;72.30;;;;;;5027780;28;20072;-43
2023/01/31 04:01:43;;;;;;;20.17;6.93;;;6.50;72.20;;;;;;5043019;28;20056;-46
2023/01/31 04:04:19;;;;;;;20.05;7.20;;;6.60;72.20;;;;;;5035966;28;20136;-45
2023/01/31 04:06:46;;;;;;;14.85;7.00;;;6.60;72.20;;;;;;5027141;28;20076;-44
2023/01/31 04:09:13;;;;;;;19.25;7.20;;;6.60;72.00;;;;;;5027490;28;20037;-45
2023/01/31 04:11:41;;;;;;;16.60;7.15;;;6.60;72.00;;;;;;5024591;28;20047;-47
2023/01/31 04:14:08;;;;;;;19.27;7.60;;;6.70;72.10;;;;;;5027960;28;20038;-44
2023/01/31 04:16:39;;;;;;;13.50;6.97;;;6.70;72.70;;;;;;5029343;28;20045;-44
2023/01/31 04:19:05;;;;;;;13.38;6.63;;;6.70;72.00;;;;;;5024144;28;20045;-47
2023/01/31 04:21:32;;;;;;;15.25;7.28;;;6.70;72.00;;;;;;5027922;28;20038;-43
2023/01/31 04:23:59;;;;;;;16.55;7.05;;;6.70;71.90;;;;;;5022250;28;20049;-44
2023/01/31 04:26:25;;;;;;;12.73;6.30;;;6.70;71.90;;;;;;5029119;28;20116;-45
2023/01/31 04:28:52;;;;;;;21.58;7.65;;;6.70;71.90;;;;;;5028425;28;20041;-46
2023/01/31 04:31:19;;;;;;;16.17;7.60;;;6.60;71.90;;;;;;5029741;28;20053;-44
2023/01/31 04:33:46;;;;;;;17.73;7.57;;;6.60;72.00;;;;;;5020651;28;20117;-43
2023/01/31 04:36:14;;;;;;;16.02;8.80;;;6.60;72.00;;;;;;5029224;28;20044;-49
2023/01/31 04:38:40;;;;;;;20.02;8.68;;;6.60;71.90;;;;;;5028084;28;20045;-46
2023/01/31 04:41:10;;;;;;;26.50;10.02;;;6.60;72.00;;;;;;5029564;28;20501;-44
2023/01/31 04:43:36;;;;;;;14.60;8.40;;;6.60;72.10;;;;;;5026854;28;20049;-45
2023/01/31 04:46:08;;;;;;;18.02;7.85;;;6.60;72.20;;;;;;5029602;28;20053;-43
2023/01/31 04:48:36;;;;;;;21.27;8.15;;;6.60;72.30;;;;;;5027907;28;20060;-44
2023/01/31 04:51:02;;;;;;;24.80;10.05;;;6.60;72.40;;;;;;5029403;28;20045;-44
2023/01/31 04:53:29;;;;;;;18.70;8.40;;;6.70;72.40;;;;;;5023475;28;20056;-44
2023/01/31 04:55:55;;;;;;;16.05;7.28;;;6.70;72.40;;;;;;5029276;28;20488;-44
2023/01/31 04:58:23;;;;;;;17.88;8.65;;;6.70;72.40;;;;;;5029702;28;20103;-48
2023/01/31 05:00:49;;;;;;;24.10;9.20;;;6.70;72.40;;;;;;5030633;28;20068;-44
2023/01/31 05:03:16;;;;;;;21.15;8.98;;;6.70;72.30;;;;;;5031531;28;20050;-43
2023/01/31 05:05:49;;;;;;;23.17;9.75;;;6.70;72.20;;;;;;5032311;28;20042;-44
2023/01/31 05:08:18;;;;;;;19.45;8.25;;;6.80;72.30;;;;;;5026244;28;20099;-45
2023/01/31 05:10:44;;;;;;;16.95;9.07;;;6.80;72.20;;;;;;5032470;28;20064;-44
2023/01/31 05:13:11;;;;;;;17.52;8.60;;;6.80;72.10;;;;;;5023219;28;20033;-44
2023/01/31 05:15:39;;;;;;;20.35;9.55;;;6.80;72.00;;;;;;5028646;28;20045;-43
2023/01/31 05:18:08;;;;;;;17.73;9.65;;;6.80;72.00;;;;;;5029880;28;20454;-44
2023/01/31 05:20:39;;;;;;;20.73;9.05;;;6.80;71.90;;;;;;5030527;28;20050;-44
2023/01/31 05:23:06;;;;;;;18.45;8.00;;;6.80;72.00;;;;;;5026305;28;20132;-44
2023/01/31 05:25:34;;;;;;;22.50;9.65;;;6.80;71.90;;;;;;5031635;28;20052;-44
2023/01/31 05:28:02;;;;;;;20.23;10.07;;;6.80;71.90;;;;;;5031078;28;20045;-43
2023/01/31 05:30:29;;;;;;;19.98;9.05;;;6.80;71.90;;;;;;5031472;28;20045;-43
2023/01/31 05:32:56;;;;;;;22.25;9.95;;;6.80;71.80;;;;;;5025517;28;20136;-43
2023/01/31 05:35:22;;;;;;;23.80;9.88;;;6.80;71.70;;;;;;5029351;28;20117;-47
2023/01/31 05:37:51;;;;;;;19.90;8.93;;;6.80;71.60;;;;;;5030846;28;20049;-48
2023/01/31 05:40:21;;;;;;;23.98;9.10;;;6.80;71.50;;;;;;5031049;28;20046;-44
2023/01/31 05:43:01;;;;;;;19.55;9.57;;;6.70;71.50;;;;;;5025438;28;20089;-43
2023/01/31 05:45:29;;;;;;;24.85;9.30;;;6.70;71.60;;;;;;5030251;28;20055;-48
2023/01/31 05:47:56;;;;;;;17.13;9.32;;;6.70;71.40;;;;;;5030021;28;20122;-44
2023/01/31 05:50:22;;;;;;;15.68;8.10;;;6.70;71.40;;;;;;5031465;28;20558;-44
2023/01/31 05:53:01;;;;;;;18.00;9.27;;;6.60;71.40;;;;;;5027956;28;20541;-45
2023/01/31 05:55:29;;;;;;;18.73;9.25;;;6.60;71.40;;;;;;5029077;28;20307;-44
2023/01/31 05:57:56;;;;;;;23.08;9.18;;;6.60;71.40;;;;;;5031131;28;20051;-44
2023/01/31 06:00:23;;;;;;;16.48;8.23;;;6.60;71.50;;;;;;5029631;28;20064;-47
2023/01/31 06:02:50;;;;;;;21.98;8.70;;;6.60;71.70;;;;;;5022581;28;20489;-48
2023/01/31 06:05:17;;;;;;;19.13;9.50;;;6.60;71.80;;;;;;5028674;28;20038;-45
2023/01/31 06:07:44;;;;;;;19.33;8.48;;;6.50;72.00;;;;;;5030641;28;20095;-46
2023/01/31 06:10:11;;;;;;;18.63;9.02;;;6.60;71.80;;;;;;5030691;28;20494;-44
2023/01/31 06:12:38;;;;;;;20.73;8.65;;;6.50;71.80;;;;;;5025978;28;20084;-47
2023/01/31 06:15:05;;;;;;;23.70;9.60;;;6.50;71.70;;;;;;5029434;28;20235;-46
2023/01/31 06:17:32;;;;;;;21.10;9.02;;;6.50;71.70;;;;;;5030707;28;20037;-48
2023/01/31 06:19:58;;;;;;;23.23;9.38;;;6.60;71.70;;;;;;5030687;28;20602;-45
2023/01/31 06:22:25;;;;;;;15.27;8.18;;;6.60;71.70;;;;;;5024528;28;20099;-44
2023/01/31 06:24:52;;;;;;;23.65;9.20;;;6.60;71.70;;;;;;5027014;28;20044;-43
2023/01/31 06:27:19;;;;;;;21.50;8.88;;;6.60;71.80;;;;;;5023350;28;20046;-50
2023/01/31 06:29:48;;;;;;;17.17;9.27;;;6.50;71.70;;;;;;5042056;28;20119;-46
2023/01/31 06:32:18;;;;;;;20.33;9.18;;;6.60;71.60;;;;;;5027573;28;20037;-49
2023/01/31 06:34:44;;;;;;;26.33;9.32;;;6.50;72.10;;;;;;5028737;28;20433;-48
2023/01/31 06:37:11;;;;;;;22.70;8.77;;;6.60;71.50;;;;;;5025148;28;20444;-49
2023/01/31 06:39:38;;;;;;;22.35;7.53;;;6.50;71.50;;;;;;5029144;28;20052;-52
2023/01/31 06:42:05;;;;;;;19.00;8.25;;;6.50;71.50;;;;;;5042931;28;20057;-50
2023/01/31 06:44:36;;;;;;;17.50;8.38;;;6.50;71.60;;;;;;5030473;28;20064;-53
2023/01/31 06:47:03;;;;;;;18.58;8.70;;;6.50;71.70;;;;;;5026936;28;20052;-48
2023/01/31 06:49:29;;;;;;;21.95;7.38;;;6.50;71.70;;;;;;5026882;28;20107;-50
2023/01/31 06:51:58;;;;;;;18.25;7.88;;;6.50;71.90;;;;;;5025122;28;20375;-49
2023/01/31 06:54:25;;;;;;;13.43;7.25;;;6.50;71.90;;;;;;5024703;28;20179;-50
2023/01/31 06:56:52;;;;;;;16.17;6.88;;;6.60;71.90;;;;;;5027026;28;20429;-53
2023/01/31 06:59:19;;;;;;;15.52;6.63;;;6.50;71.90;;;;;;5028800;28;20052;-48
2023/01/31 07:01:46;;;;;;;13.95;6.50;;;6.60;71.90;;;;;;5026725;28;20049;-48
2023/01/31 07:04:15;;;;;;;17.15;7.32;;;6.60;71.90;;;;;;5027044;28;20052;-48
2023/01/31 07:06:42;;;;;;;17.08;7.30;;;6.60;72.00;;;;;;5028535;28;20045;-47
2023/01/31 07:09:10;;;;;;;13.20;6.57;;;6.70;72.10;;;;;;5021248;28;20045;-51
2023/01/31 07:11:37;;;;;;;13.65;6.75;;;6.70;72.10;;;;;;5028192;28;20052;-47
2023/01/31 07:14:10;;;;;;;13.75;6.38;;;6.70;72.10;;;;;;5028285;28;20050;-51
2023/01/31 07:16:37;;;;;;;14.30;6.32;;;6.80;72.10;;;;;;5023310;28;20038;-47
2023/01/31 07:19:06;;;;;;;11.52;5.95;;;6.80;72.00;;;;;;5022550;28;20051;-51
2023/01/31 07:21:34;;;;;;;16.13;6.38;;;6.80;71.90;;;;;;5027208;28;20048;-47
2023/01/31 07:24:02;;;;;;;13.68;6.78;;;6.90;71.90;;;;;;5023918;28;20053;-49
2023/01/31 07:26:29;;;;;;;14.70;6.78;;;6.90;71.90;;;;;;5029284;28;20045;-53
2023/01/31 07:28:55;;;;;;;14.43;5.90;;;6.90;71.80;;;;;;5027591;28;20111;-47
2023/01/31 07:31:22;;;;;;;14.15;5.90;;;6.90;71.70;;;;;;5026951;28;20040;-52
2023/01/31 07:33:49;;;;;;;15.27;6.30;;;6.90;71.60;;;;;;5027420;28;20282;-48
2023/01/31 07:36:18;;;;;;;17.77;5.65;;;7.00;71.60;;;;;;5074799;22;20059;-49
2023/01/31 07:38:45;;;;;;;13.05;6.20;;;7.00;71.50;;;;;;5069901;28;20072;-53
2023/01/31 07:41:11;;;;;;;13.00;5.72;;;7.00;71.50;;;;;;5077570;28;20058;-52
2023/01/31 07:43:38;;;;;;;16.48;5.82;;;7.00;71.40;;;;;;5073145;28;20127;-56
2023/01/31 07:46:09;;;;;;;12.93;6.45;;;7.10;71.50;;;;;;5083010;28;20087;-54
2023/01/31 07:48:37;;;;;;;12.13;5.50;;;7.10;71.50;;;;;;5079594;28;20094;-55
2023/01/31 07:51:04;;;;;;;13.20;4.82;;;7.10;71.40;;;;;;5085626;28;20044;-50
2023/01/31 07:53:33;;;;;;;13.23;5.78;;;7.20;71.40;;;;;;5069376;28;20040;-49
2023/01/31 07:56:09;;;;;;;15.15;5.72;;;7.20;71.40;;;;;;5076983;28;20045;-49
2023/01/31 07:58:37;;;;;;;14.02;4.82;;;7.20;71.40;;;;;;5089788;28;20052;-50
2023/01/31 08:03:53;;;;;;;13.15;5.25;;;7.30;71.30;;;;;;5081690;28;20044;-53
2023/01/31 08:06:19;;;;;;;14.18;5.20;;;7.40;71.20;;;;;;5077327;28;20048;-49
2023/01/31 08:08:46;;;;;;;12.48;5.28;;;7.40;71.20;;;;;;5081917;28;20054;-53
2023/01/31 08:11:15;;;;;;;12.65;4.47;;;7.40;71.20;;;;;;5084053;28;20492;-51
2023/01/31 08:13:41;;;;;;;14.10;4.68;;;7.50;71.20;;;;;;5086436;28;20048;-53
2023/01/31 08:16:09;;;;;;;15.85;5.72;;;7.50;71.20;;;;;;5069337;28;20146;-53
2023/01/31 08:18:37;;;;;;;11.52;4.75;;;7.50;71.10;;;;;;5078180;28;20044;-52
2023/01/31 08:21:05;;;;;;;12.50;4.05;;;7.60;71.10;;;;;;5073048;28;20040;-53
2023/01/31 08:23:33;;;;;;;15.15;4.50;;;7.60;71.00;;;;;;5074574;28;20053;-50
2023/01/31 08:26:11;;;;;;;10.68;3.92;;;7.70;70.90;;;;;;5071799;28;20051;-53
2023/01/31 08:28:38;;;;;;;9.43;3.80;;;7.70;70.70;;;;;;5081105;28;20048;-50
2023/01/31 08:31:05;;;;;;;10.05;3.97;;;7.70;70.50;;;;;;5072165;28;20500;-51
2023/01/31 08:33:36;;;;;;;7.88;3.95;;;7.80;70.60;;;;;;5068349;28;20044;-51
2023/01/31 08:36:22;;;;;;;11.30;4.20;;;7.80;70.70;;;;;;5072639;28;20036;-55
2023/01/31 08:38:50;;;;;;;11.23;4.32;;;7.80;70.80;;;;;;5073102;28;20111;-49
2023/01/31 08:41:19;;;;;;;13.85;4.35;;;7.90;70.70;;;;;;5081210;28;20063;-53
2023/01/31 08:43:48;;;;;;;13.95;4.95;;;7.90;70.80;;;;;;5075946;28;20052;-53
2023/01/31 08:46:28;;;;;;;11.60;4.40;;;7.90;71.00;;;;;;5071723;28;20044;-52
2023/01/31 08:48:57;;;;;;;14.13;5.00;;;7.90;71.30;;;;;;5072913;28;20119;-52
2023/01/31 08:51:24;;;;;;;9.45;4.32;;;7.90;71.10;;;;;;5079430;28;20032;-54
2023/01/31 08:53:53;;;;;;;12.43;4.05;;;8.00;71.20;;;;;;5086452;28;20048;-52
2023/01/31 08:56:24;;;;;;;10.55;4.38;;;8.00;71.20;;;;;;5071244;28;20055;-53
2023/01/31 08:58:52;;;;;;;9.70;4.18;;;8.00;71.20;;;;;;5054686;28;20102;-50
2023/01/31 09:01:20;;;;;;;12.48;4.32;;;8.10;71.20;;;;;;5092141;28;20123;-52
2023/01/31 09:03:49;;;;;;;13.82;4.90;;;8.20;71.30;;;;;;5077309;28;20044;-53
2023/01/31 09:06:21;;;;;;;12.65;4.70;;;8.10;71.20;;;;;;5079314;28;20044;-52
2023/01/31 09:08:48;;;;;;;10.65;4.85;;;8.20;71.40;;;;;;5091573;28;20043;-53
2023/01/31 09:11:17;;;;;;;9.13;4.50;;;8.30;71.40;;;;;;5085472;28;20492;-53
2023/01/31 09:13:50;;;;;;;10.20;4.10;;;8.30;71.30;;;;;;5083089;28;20044;-51
2023/01/31 09:16:18;;;;;;;15.02;4.55;;;8.30;71.20;;;;;;5079175;28;20182;-52
2023/01/31 09:18:44;;;;;;;8.75;3.47;;;8.30;71.10;;;;;;5077577;28;20059;-53
2023/01/31 09:21:20;;;;;;;8.95;4.32;;;8.40;71.20;;;;;;5086316;28;20051;-52
2023/01/31 09:23:48;;;;;;;11.13;4.57;;;8.40;71.30;;;;;;5090157;28;20496;-51
2023/01/31 09:26:15;;;;;;;11.55;3.80;;;8.50;71.30;;;;;;5082221;28;20044;-54
2023/01/31 09:28:42;;;;;;;9.80;3.92;;;8.50;71.10;;;;;;5082533;28;20044;-49
2023/01/31 09:31:15;;;;;;;12.00;4.15;;;8.50;70.90;;;;;;5082775;28;20135;-55
2023/01/31 09:33:42;;;;;;;16.15;4.55;;;8.60;70.90;;;;;;5077807;28;20079;-53
2023/01/31 09:36:15;;;;;;;12.07;4.93;;;8.60;70.90;;;;;;5080450;28;20516;-53
2023/01/31 09:38:42;;;;;;;10.90;4.25;;;8.70;70.90;;;;;;5080645;28;20068;-51
2023/01/31 09:41:18;;;;;;;11.00;5.10;;;8.70;70.80;;;;;;5074901;28;20059;-49
2023/01/31 09:43:50;;;;;;;7.10;4.05;;;8.70;70.60;;;;;;5079314;28;20040;-52
2023/01/31 09:46:21;;;;;;;9.43;3.95;;;8.80;70.60;;;;;;5071035;28;20242;-51
2023/01/31 09:48:51;;;;;;;11.65;4.25;;;8.80;70.70;;;;;;5076573;28;20036;-53
2023/01/31 09:51:19;;;;;;;10.75;4.45;;;8.80;70.70;;;;;;5079064;28;20049;-55
2023/01/31 09:53:46;;;;;;;15.93;4.93;;;8.90;70.60;;;;;;5087074;28;20062;-54
2023/01/31 09:56:18;;;;;;;17.23;5.10;;;8.90;70.60;;;;;;5069698;28;20052;-51
2023/01/31 09:59:11;;;;;;;11.60;4.78;;;8.90;70.50;;;;;;5078598;28;20048;-49
2023/01/31 10:02:13;;;;;;;9.77;4.60;;;8.90;70.80;;;;;;5072715;28;20089;-54
2023/01/31 10:05:02;;;;;;;12.85;4.88;;;8.90;70.90;;;;;;5070997;28;20695;-52
2023/01/31 10:07:35;;;;;;;13.48;5.03;;;8.90;71.00;;;;;;5086244;28;20048;-53
2023/01/31 10:10:04;;;;;;;13.73;5.20;;;8.90;70.90;;;;;;5079181;28;20123;-52
2023/01/31 10:12:42;;;;;;;7.35;4.53;;;8.90;71.10;;;;;;5077976;28;20048;-53
2023/01/31 10:15:25;;;;;;;10.43;5.18;;;8.90;71.40;;;;;;5069889;28;20166;-53
2023/01/31 10:17:58;;;;;;;13.55;5.50;;;8.90;71.30;;;;;;5077663;28;20045;-52
2023/01/31 10:20:47;;;;;;;13.20;5.63;;;8.90;71.30;;;;;;5070247;28;20036;-51
2023/01/31 10:23:28;;;;;;;14.73;6.28;;;8.90;71.60;;;;;;5068335;28;20056;-50
2023/01/31 10:26:07;;;;;;;12.25;6.28;;;9.00;72.10;;;;;;5069754;28;20045;-54
2023/01/31 10:28:46;;;;;;;9.80;6.60;;;9.00;72.10;;;;;;5076172;28;20059;-52
2023/01/31 10:31:28;;;;;;;16.48;7.57;;;9.10;72.10;;;;;;5081919;28;20464;-55
2023/01/31 10:34:16;;;;;;;24.23;15.23;;;9.20;71.90;;;;;;5074209;28;20059;-52
2023/01/31 10:36:53;;;;;;;16.77;8.70;;;9.30;71.60;;;;;;5078249;28;20048;-52
2023/01/31 10:39:28;;;;;;;17.90;8.45;;;9.40;71.30;;;;;;5079475;28;21862;-52
2023/01/31 10:42:21;;;;;;;15.00;7.63;;;9.40;71.10;;;;;;5082131;28;20067;-51
2023/01/31 10:44:50;;;;;;;17.63;7.38;;;9.50;71.00;;;;;;5070386;28;20112;-52
2023/01/31 10:47:19;;;;;;;12.70;6.70;;;9.50;70.80;;;;;;5070629;28;20056;-52
2023/01/31 10:49:49;;;;;;;13.57;5.75;;;9.50;71.00;;;;;;5077140;28;20587;-49
2023/01/31 10:52:42;;;;;;;15.10;6.57;;;9.60;70.90;;;;;;5086706;28;20497;-51
2023/01/31 10:55:12;;;;;;;12.07;5.72;;;9.60;71.10;;;;;;5074754;28;20041;-55
2023/01/31 10:57:39;;;;;;;13.65;6.55;;;9.70;71.10;;;;;;5073978;28;20493;-49
2023/01/31 11:00:12;;;;;;;10.90;5.57;;;9.80;71.60;;;;;;5070283;28;20489;-52
2023/01/31 11:02:39;;;;;;;17.45;7.28;;;9.80;70.80;;;;;;5081412;28;20054;-53
2023/01/31 11:05:13;;;;;;;14.15;6.30;;;9.80;70.50;;;;;;5054589;28;20088;-55
2023/01/31 11:07:39;;;;;;;10.90;6.20;;;9.90;70.40;;;;;;5083308;28;20044;-54
2023/01/31 11:10:23;;;;;;;14.00;5.68;;;9.90;70.20;;;;;;5077767;28;20450;-54
2023/01/31 11:13:00;;;;;;;9.88;6.38;;;9.90;70.00;;;;;;5077104;28;20028;-52
2023/01/31 11:15:34;;;;;;;9.63;5.50;;;9.90;69.90;;;;;;5087915;28;20043;-53
2023/01/31 11:18:01;;;;;;;11.95;6.80;;;10.00;69.90;;;;;;5080577;28;20559;-48
2023/01/31 11:20:35;;;;;;;12.18;7.40;;;9.90;69.80;;;;;;5085598;28;20497;-53
2023/01/31 11:23:05;;;;;;;11.70;7.13;;;9.90;69.80;;;;;;5082692;28;20059;-51
2023/01/31 11:25:33;;;;;;;12.90;6.20;;;9.90;69.90;;;;;;5068480;28;20054;-52
2023/01/31 11:28:15;;;;;;;9.52;6.32;;;9.90;69.90;;;;;;5077385;28;20044;-52
2023/01/31 11:30:48;;;;;;;15.43;7.88;;;9.80;69.90;;;;;;5078478;28;20040;-49
2023/01/31 11:33:46;;;;;;;10.90;6.40;;;9.80;69.90;;;;;;5087687;28;20059;-56
2023/01/31 11:36:15;;;;;;;16.35;7.18;;;9.80;70.10;;;;;;5085079;28;20036;-55
2023/01/31 11:38:42;;;;;;;13.10;7.07;;;9.80;70.10;;;;;;5088598;28;20121;-52
2023/01/31 11:41:26;;;;;;;20.95;6.95;;;9.70;70.20;;;;;;5084343;28;20044;-51
2023/01/31 11:44:15;;;;;;;11.27;5.90;;;9.70;70.50;;;;;;5088027;28;20040;-50
2023/01/31 11:46:47;;;;;;;12.55;7.65;;;9.70;70.50;;;;;;5088304;28;20064;-53
2023/01/31 11:49:21;;;;;;;13.77;7.25;;;9.80;70.60;;;;;;5071090;28;20039;-51
2023/01/31 11:51:48;;;;;;;14.80;6.90;;;9.70;70.70;;;;;;5075036;28;20048;-51
2023/01/31 11:54:23;;;;;;;14.48;7.55;;;9.80;70.80;;;;;;5085800;28;20044;-50
2023/01/31 11:56:50;;;;;;;16.35;7.93;;;9.80;70.90;;;;;;5072010;28;20036;-53
2023/01/31 11:59:21;;;;;;;12.18;7.13;;;9.80;70.80;;;;;;5079585;28;20041;-49
2023/01/31 12:01:59;;;;;;;11.43;6.88;;;9.80;70.90;;;;;;5076907;28;20051;-53
2023/01/31 12:04:32;;;;;;;8.70;6.93;;;9.80;71.00;;;;;;5083985;28;20504;-51
2023/01/31 12:07:19;;;;;;;11.25;6.55;;;9.80;70.90;;;;;;5063665;28;20127;-53
2023/01/31 12:09:45;;;;;;;13.60;5.88;;;9.80;70.90;;;;;;5085098;28;20059;-53
2023/01/31 12:12:21;;;;;;;16.08;6.20;;;9.80;70.70;;;;;;5080058;28;20036;-52
2023/01/31 12:14:47;;;;;;;10.25;6.22;;;9.80;70.90;;;;;;5086841;28;20062;-56
2023/01/31 12:17:17;;;;;;;11.65;5.97;;;9.80;70.80;;;;;;5085442;28;20043;-52
2023/01/31 12:20:17;;;;;;;12.15;5.95;;;9.80;70.90;;;;;;5064181;28;20049;-55
2023/01/31 12:23:42;;;;;;;11.57;5.60;;;9.90;71.00;;;;;;5085055;28;20500;-53
2023/01/31 12:26:18;;;;;;;13.73;6.45;;;9.90;71.10;;;;;;5028004;28;20092;-49
2023/01/31 12:29:12;;;;;;;8.52;6.25;;;9.90;71.00;;;;;;5029492;28;20059;-51
2023/01/31 12:32:05;;;;;;;13.20;6.75;;;9.90;71.20;;;;;;5066714;28;20060;-51
2023/01/31 12:34:49;;;;;;;19.48;7.20;;;9.90;71.20;;;;;;5089041;28;20044;-54
2023/01/31 12:37:40;;;;;;;10.95;5.75;;;9.90;71.30;;;;;;5075270;28;20046;-51
2023/01/31 12:40:20;;;;;;;9.48;5.53;;;9.90;71.20;;;;;;5078602;28;20041;-55
2023/01/31 12:43:20;;;;;;;13.27;6.22;;;9.90;71.20;;;;;;5087852;28;20152;-52
2023/01/31 12:45:56;;;;;;;11.20;5.70;;;10.00;71.20;;;;;;5078215;28;20090;-52
2023/01/31 12:49:01;;;;;;;12.13;6.88;;;10.00;71.20;;;;;;5077257;28;20086;-51
2023/01/31 12:51:49;;;;;;;13.38;6.72;;;10.00;71.30;;;;;;5084409;28;20128;-54
2023/01/31 12:54:37;;;;;;;15.65;9.80;;;10.00;71.00;;;;;;5087115;28;20520;-53
2023/01/31 12:57:31;;;;;;;13.93;7.95;;;10.10;71.10;;;;;;5079465;28;20040;-51
2023/01/31 13:00:23;;;;;;;14.00;6.20;;;10.10;71.20;;;;;;5075149;28;20056;-53
2023/01/31 13:03:30;;;;;;;13.40;5.90;;;10.10;71.10;;;;;;5080655;28;20050;-50
2023/01/31 13:06:17;;;;;;;13.93;6.43;;;10.10;71.30;;;;;;5011307;28;20517;-49
2023/01/31 13:08:54;;;;;;;12.27;6.03;;;10.10;71.30;;;;;;5058541;28;20036;-50
2023/01/31 13:11:45;;;;;;;15.52;6.40;;;10.10;71.40;;;;;;5078026;28;20393;-50
2023/01/31 13:14:18;;;;;;;9.98;6.00;;;10.10;71.80;;;;;;5074076;28;20048;-53
2023/01/31 13:16:48;;;;;;;12.35;6.85;;;10.10;71.60;;;;;;5070699;28;20052;-49
2023/01/31 13:19:37;;;;;;;12.77;6.30;;;10.10;71.60;;;;;;5078990;28;20033;-51
2023/01/31 13:22:12;;;;;;;12.57;6.22;;;10.10;72.00;;;;;;5083804;28;20086;-52
2023/01/31 13:24:42;;;;;;;15.27;6.38;;;10.10;72.40;;;;;;5075358;28;20037;-53
2023/01/31 13:27:31;;;;;;;11.27;6.57;;;10.00;72.40;;;;;;5071164;28;20041;-52
2023/01/31 13:30:15;;;;;;;12.57;7.22;;;10.00;73.40;;;;;;5079555;28;20120;-50
2023/01/31 13:32:47;;;;;;;15.25;6.90;;;10.00;73.20;;;;;;5078016;28;20045;-54
2023/01/31 13:35:21;;;;;;;14.40;8.00;;;9.90;73.10;;;;;;5080992;28;20070;-53
2023/01/31 13:37:53;;;;;;;14.18;7.22;;;9.90;73.20;;;;;;5078526;28;20733;-49
2023/01/31 13:40:25;;;;;;;13.32;7.63;;;9.80;73.50;;;;;;5095669;22;20390;-49
2023/01/31 13:43:01;;;;;;;9.43;6.80;;;9.80;74.30;;;;;;5065402;28;20045;-47
2023/01/31 13:45:34;;;;;;;12.63;7.43;;;9.80;74.40;;;;;;5052496;28;20394;-50
2023/01/31 13:48:09;;;;;;;12.10;6.88;;;9.80;74.10;;;;;;5051744;28;20391;-46
2023/01/31 13:50:43;;;;;;;10.15;6.88;;;9.80;74.50;;;;;;5054599;28;20121;-48